sensor_id;sensor_type;location;lat;lon;timestamp;P1;durP1;ratioP1;P2;durP2;ratioP2
21458;SDS011;10891;49.350;19.386;2022-09-21T00:01:52;26.85;;;17.65;;
21458;SDS011;10891;49.350;19.386;2022-09-21T00:04:19;22.10;;;15.02;;
21458;SDS011;10891;49.350;19.386;2022-09-21T00:06:46;28.75;;;18.45;;
21458;SDS011;10891;49.350;19.386;2022-09-21T00:09:12;24.65;;;15.45;;
21458;SDS011;10891;49.350;19.386;2022-09-21T00:11:39;29.80;;;17.90;;
21458;SDS011;10891;49.350;19.386;2022-09-21T00:14:07;26.63;;;16.75;;
21458;SDS011;10891;49.350;19.386;2022-09-21T00:16:36;24.58;;;16.38;;
21458;SDS011;10891;49.350;19.386;2022-09-21T00:19:05;26.95;;;15.68;;
21458;SDS011;10891;49.350;19.386;2022-09-21T00:21:33;18.15;;;11.90;;
21458;SDS011;10891;49.350;19.386;2022-09-21T00:24:00;20.60;;;11.70;;
21458;SDS011;10891;49.350;19.386;2022-09-21T00:26:28;17.15;;;11.75;;
21458;SDS011;10891;49.350;19.386;2022-09-21T00:28:55;21.13;;;11.30;;
21458;SDS011;10891;49.350;19.386;2022-09-21T00:31:23;18.90;;;11.30;;
21458;SDS011;10891;49.350;19.386;2022-09-21T00:33:51;16.33;;;11.25;;
21458;SDS011;10891;49.350;19.386;2022-09-21T00:36:20;17.67;;;10.32;;
21458;SDS011;10891;49.350;19.386;2022-09-21T00:38:48;16.45;;;10.73;;
21458;SDS011;10891;49.350;19.386;2022-09-21T00:41:16;19.48;;;11.90;;
21458;SDS011;10891;49.350;19.386;2022-09-21T00:43:44;18.33;;;12.10;;
21458;SDS011;10891;49.350;19.386;2022-09-21T00:46:14;24.92;;;13.77;;
21458;SDS011;10891;49.350;19.386;2022-09-21T00:48:47;27.63;;;15.07;;
21458;SDS011;10891;49.350;19.386;2022-09-21T00:51:14;126.30;;;55.58;;
21458;SDS011;10891;49.350;19.386;2022-09-21T00:53:43;134.48;;;58.25;;
21458;SDS011;10891;49.350;19.386;2022-09-21T00:56:10;81.57;;;38.67;;
21458;SDS011;10891;49.350;19.386;2022-09-21T00:58:39;35.20;;;19.58;;
21458;SDS011;10891;49.350;19.386;2022-09-21T01:01:10;29.30;;;16.38;;
21458;SDS011;10891;49.350;19.386;2022-09-21T01:03:42;33.83;;;20.63;;
21458;SDS011;10891;49.350;19.386;2022-09-21T01:06:09;30.42;;;16.88;;
21458;SDS011;10891;49.350;19.386;2022-09-21T01:08:37;31.88;;;15.80;;
21458;SDS011;10891;49.350;19.386;2022-09-21T01:11:14;29.35;;;18.17;;
21458;SDS011;10891;49.350;19.386;2022-09-21T01:13:51;39.67;;;24.23;;
21458;SDS011;10891;49.350;19.386;2022-09-21T01:16:29;59.78;;;32.58;;
21458;SDS011;10891;49.350;19.386;2022-09-21T01:19:01;29.40;;;17.67;;
21458;SDS011;10891;49.350;19.386;2022-09-21T01:21:38;40.45;;;22.95;;
21458;SDS011;10891;49.350;19.386;2022-09-21T01:24:16;30.13;;;19.10;;
21458;SDS011;10891;49.350;19.386;2022-09-21T01:27:06;25.23;;;17.08;;
21458;SDS011;10891;49.350;19.386;2022-09-21T01:29:51;25.90;;;16.52;;
21458;SDS011;10891;49.350;19.386;2022-09-21T01:32:22;29.13;;;15.93;;
21458;SDS011;10891;49.350;19.386;2022-09-21T01:34:54;31.17;;;17.27;;
21458;SDS011;10891;49.350;19.386;2022-09-21T01:37:25;22.17;;;15.40;;
21458;SDS011;10891;49.350;19.386;2022-09-21T01:39:58;20.10;;;12.93;;
21458;SDS011;10891;49.350;19.386;2022-09-21T01:42:27;25.42;;;15.88;;
21458;SDS011;10891;49.350;19.386;2022-09-21T01:44:57;23.52;;;14.98;;
21458;SDS011;10891;49.350;19.386;2022-09-21T01:47:28;22.10;;;15.32;;
21458;SDS011;10891;49.350;19.386;2022-09-21T01:49:56;23.70;;;13.13;;
21458;SDS011;10891;49.350;19.386;2022-09-21T01:52:28;20.20;;;12.82;;
21458;SDS011;10891;49.350;19.386;2022-09-21T01:55:01;23.33;;;13.85;;
21458;SDS011;10891;49.350;19.386;2022-09-21T01:57:33;23.02;;;14.05;;
21458;SDS011;10891;49.350;19.386;2022-09-21T02:00:07;20.25;;;12.65;;
21458;SDS011;10891;49.350;19.386;2022-09-21T02:02:36;19.80;;;12.85;;
21458;SDS011;10891;49.350;19.386;2022-09-21T02:05:09;21.13;;;12.70;;
21458;SDS011;10891;49.350;19.386;2022-09-21T02:07:36;17.98;;;12.85;;
21458;SDS011;10891;49.350;19.386;2022-09-21T02:10:05;18.48;;;11.68;;
21458;SDS011;10891;49.350;19.386;2022-09-21T02:12:34;17.73;;;12.48;;
21458;SDS011;10891;49.350;19.386;2022-09-21T02:15:02;19.15;;;13.05;;
21458;SDS011;10891;49.350;19.386;2022-09-21T02:17:33;18.77;;;12.05;;
21458;SDS011;10891;49.350;19.386;2022-09-21T02:20:12;20.02;;;12.05;;
21458;SDS011;10891;49.350;19.386;2022-09-21T02:22:47;17.08;;;11.52;;
21458;SDS011;10891;49.350;19.386;2022-09-21T02:25:24;17.65;;;11.60;;
21458;SDS011;10891;49.350;19.386;2022-09-21T02:27:59;17.85;;;11.60;;
21458;SDS011;10891;49.350;19.386;2022-09-21T02:30:32;29.75;;;18.60;;
21458;SDS011;10891;49.350;19.386;2022-09-21T02:33:03;31.67;;;17.27;;
21458;SDS011;10891;49.350;19.386;2022-09-21T02:35:37;24.27;;;15.02;;
21458;SDS011;10891;49.350;19.386;2022-09-21T02:38:10;21.52;;;13.68;;
21458;SDS011;10891;49.350;19.386;2022-09-21T02:40:45;18.70;;;11.80;;
21458;SDS011;10891;49.350;19.386;2022-09-21T02:43:18;18.95;;;12.73;;
21458;SDS011;10891;49.350;19.386;2022-09-21T02:45:50;21.40;;;12.18;;
21458;SDS011;10891;49.350;19.386;2022-09-21T02:48:23;14.85;;;10.18;;
21458;SDS011;10891;49.350;19.386;2022-09-21T02:50:56;15.50;;;10.80;;
21458;SDS011;10891;49.350;19.386;2022-09-21T02:53:29;17.98;;;11.68;;
21458;SDS011;10891;49.350;19.386;2022-09-21T02:55:59;18.40;;;12.25;;
21458;SDS011;10891;49.350;19.386;2022-09-21T02:58:31;20.50;;;13.00;;
21458;SDS011;10891;49.350;19.386;2022-09-21T03:01:00;22.25;;;14.32;;
21458;SDS011;10891;49.350;19.386;2022-09-21T03:03:34;23.02;;;15.45;;
21458;SDS011;10891;49.350;19.386;2022-09-21T03:06:01;21.42;;;15.27;;
21458;SDS011;10891;49.350;19.386;2022-09-21T03:08:28;24.23;;;16.58;;
21458;SDS011;10891;49.350;19.386;2022-09-21T03:10:55;26.42;;;16.83;;
21458;SDS011;10891;49.350;19.386;2022-09-21T03:13:22;23.60;;;16.35;;
21458;SDS011;10891;49.350;19.386;2022-09-21T03:15:57;18.83;;;14.13;;
21458;SDS011;10891;49.350;19.386;2022-09-21T03:18:25;38.25;;;23.63;;
21458;SDS011;10891;49.350;19.386;2022-09-21T03:20:53;34.10;;;22.00;;
21458;SDS011;10891;49.350;19.386;2022-09-21T03:23:20;32.72;;;21.98;;
21458;SDS011;10891;49.350;19.386;2022-09-21T03:25:47;33.30;;;21.48;;
21458;SDS011;10891;49.350;19.386;2022-09-21T03:28:16;37.15;;;23.02;;
21458;SDS011;10891;49.350;19.386;2022-09-21T03:30:43;33.45;;;21.25;;
21458;SDS011;10891;49.350;19.386;2022-09-21T03:33:10;28.85;;;19.60;;
21458;SDS011;10891;49.350;19.386;2022-09-21T03:35:37;51.15;;;27.27;;
21458;SDS011;10891;49.350;19.386;2022-09-21T03:38:06;65.95;;;34.83;;
21458;SDS011;10891;49.350;19.386;2022-09-21T03:40:33;47.53;;;27.02;;
21458;SDS011;10891;49.350;19.386;2022-09-21T03:43:00;35.72;;;21.80;;
21458;SDS011;10891;49.350;19.386;2022-09-21T03:45:27;32.65;;;20.83;;
21458;SDS011;10891;49.350;19.386;2022-09-21T03:47:54;47.45;;;26.95;;
21458;SDS011;10891;49.350;19.386;2022-09-21T03:50:21;41.88;;;25.92;;
21458;SDS011;10891;49.350;19.386;2022-09-21T03:52:48;37.47;;;23.05;;
21458;SDS011;10891;49.350;19.386;2022-09-21T03:55:17;32.60;;;20.85;;
21458;SDS011;10891;49.350;19.386;2022-09-21T03:57:44;41.80;;;23.10;;
21458;SDS011;10891;49.350;19.386;2022-09-21T04:00:11;34.55;;;22.02;;
21458;SDS011;10891;49.350;19.386;2022-09-21T04:02:38;36.38;;;21.10;;
21458;SDS011;10891;49.350;19.386;2022-09-21T04:05:06;27.20;;;17.90;;
21458;SDS011;10891;49.350;19.386;2022-09-21T04:07:34;19.65;;;13.73;;
21458;SDS011;10891;49.350;19.386;2022-09-21T04:10:02;18.27;;;12.45;;
21458;SDS011;10891;49.350;19.386;2022-09-21T04:12:32;15.20;;;10.13;;
21458;SDS011;10891;49.350;19.386;2022-09-21T04:14:59;11.20;;;7.50;;
21458;SDS011;10891;49.350;19.386;2022-09-21T04:17:26;15.32;;;9.18;;
21458;SDS011;10891;49.350;19.386;2022-09-21T04:19:53;24.90;;;13.10;;
21458;SDS011;10891;49.350;19.386;2022-09-21T04:22:20;12.75;;;8.45;;
21458;SDS011;10891;49.350;19.386;2022-09-21T04:24:48;49.75;;;27.02;;
21458;SDS011;10891;49.350;19.386;2022-09-21T04:27:15;31.05;;;18.83;;
21458;SDS011;10891;49.350;19.386;2022-09-21T04:29:44;15.38;;;8.75;;
21458;SDS011;10891;49.350;19.386;2022-09-21T04:32:11;11.70;;;7.60;;
21458;SDS011;10891;49.350;19.386;2022-09-21T04:34:38;12.30;;;7.45;;
21458;SDS011;10891;49.350;19.386;2022-09-21T04:37:05;12.93;;;10.13;;
21458;SDS011;10891;49.350;19.386;2022-09-21T04:39:32;10.73;;;7.60;;
21458;SDS011;10891;49.350;19.386;2022-09-21T04:41:59;17.85;;;10.48;;
21458;SDS011;10891;49.350;19.386;2022-09-21T04:44:27;17.15;;;10.70;;
21458;SDS011;10891;49.350;19.386;2022-09-21T04:46:55;10.65;;;5.22;;
21458;SDS011;10891;49.350;19.386;2022-09-21T04:49:22;5.80;;;4.00;;
21458;SDS011;10891;49.350;19.386;2022-09-21T04:51:49;5.47;;;4.03;;
21458;SDS011;10891;49.350;19.386;2022-09-21T04:54:16;9.32;;;4.80;;
21458;SDS011;10891;49.350;19.386;2022-09-21T04:56:43;4.55;;;2.45;;
21458;SDS011;10891;49.350;19.386;2022-09-21T04:59:10;3.47;;;2.47;;
21458;SDS011;10891;49.350;19.386;2022-09-21T05:01:37;2.75;;;2.20;;
21458;SDS011;10891;49.350;19.386;2022-09-21T05:04:05;9.63;;;5.32;;
21458;SDS011;10891;49.350;19.386;2022-09-21T05:06:35;6.97;;;4.10;;
21458;SDS011;10891;49.350;19.386;2022-09-21T05:09:02;6.57;;;4.13;;
21458;SDS011;10891;49.350;19.386;2022-09-21T05:11:47;5.97;;;4.30;;
21458;SDS011;10891;49.350;19.386;2022-09-21T05:14:16;8.18;;;4.40;;
21458;SDS011;10891;49.350;19.386;2022-09-21T05:16:44;6.22;;;4.30;;
21458;SDS011;10891;49.350;19.386;2022-09-21T05:19:15;6.28;;;4.60;;
21458;SDS011;10891;49.350;19.386;2022-09-21T05:21:42;5.15;;;3.88;;
21458;SDS011;10891;49.350;19.386;2022-09-21T05:24:10;9.85;;;5.90;;
21458;SDS011;10891;49.350;19.386;2022-09-21T05:26:37;8.98;;;5.82;;
21458;SDS011;10891;49.350;19.386;2022-09-21T05:29:05;6.35;;;4.25;;
21458;SDS011;10891;49.350;19.386;2022-09-21T05:31:35;5.78;;;4.53;;
21458;SDS011;10891;49.350;19.386;2022-09-21T05:34:10;5.32;;;3.95;;
21458;SDS011;10891;49.350;19.386;2022-09-21T05:36:57;12.57;;;8.45;;
21458;SDS011;10891;49.350;19.386;2022-09-21T05:39:28;8.00;;;5.47;;
21458;SDS011;10891;49.350;19.386;2022-09-21T05:41:56;14.55;;;6.43;;
21458;SDS011;10891;49.350;19.386;2022-09-21T05:44:23;6.43;;;4.45;;
21458;SDS011;10891;49.350;19.386;2022-09-21T05:46:52;5.57;;;3.38;;
21458;SDS011;10891;49.350;19.386;2022-09-21T05:49:27;9.02;;;5.70;;
21458;SDS011;10891;49.350;19.386;2022-09-21T05:52:03;10.07;;;5.13;;
21458;SDS011;10891;49.350;19.386;2022-09-21T05:54:42;6.22;;;3.70;;
21458;SDS011;10891;49.350;19.386;2022-09-21T05:57:18;15.95;;;13.85;;
21458;SDS011;10891;49.350;19.386;2022-09-21T05:59:57;7.75;;;5.47;;
21458;SDS011;10891;49.350;19.386;2022-09-21T06:02:43;9.57;;;5.35;;
21458;SDS011;10891;49.350;19.386;2022-09-21T06:05:24;5.82;;;3.72;;
21458;SDS011;10891;49.350;19.386;2022-09-21T06:07:51;7.35;;;4.30;;
21458;SDS011;10891;49.350;19.386;2022-09-21T06:10:18;7.90;;;5.07;;
21458;SDS011;10891;49.350;19.386;2022-09-21T06:12:45;5.53;;;4.28;;
21458;SDS011;10891;49.350;19.386;2022-09-21T06:15:12;11.52;;;6.15;;
21458;SDS011;10891;49.350;19.386;2022-09-21T06:17:40;16.40;;;7.68;;
21458;SDS011;10891;49.350;19.386;2022-09-21T06:20:08;18.10;;;9.68;;
21458;SDS011;10891;49.350;19.386;2022-09-21T06:22:36;14.75;;;6.82;;
21458;SDS011;10891;49.350;19.386;2022-09-21T06:25:04;17.13;;;8.85;;
21458;SDS011;10891;49.350;19.386;2022-09-21T06:27:31;13.48;;;7.82;;
21458;SDS011;10891;49.350;19.386;2022-09-21T06:29:58;9.20;;;5.40;;
21458;SDS011;10891;49.350;19.386;2022-09-21T06:32:25;9.40;;;4.72;;
21458;SDS011;10891;49.350;19.386;2022-09-21T06:34:52;7.90;;;4.93;;
21458;SDS011;10891;49.350;19.386;2022-09-21T06:37:19;5.75;;;4.22;;
21458;SDS011;10891;49.350;19.386;2022-09-21T06:39:47;8.45;;;4.15;;
21458;SDS011;10891;49.350;19.386;2022-09-21T06:42:14;7.47;;;3.55;;
21458;SDS011;10891;49.350;19.386;2022-09-21T06:44:40;4.05;;;3.03;;
21458;SDS011;10891;49.350;19.386;2022-09-21T06:47:07;6.80;;;3.70;;
21458;SDS011;10891;49.350;19.386;2022-09-21T06:49:34;6.25;;;4.20;;
21458;SDS011;10891;49.350;19.386;2022-09-21T06:52:01;4.45;;;3.58;;
21458;SDS011;10891;49.350;19.386;2022-09-21T06:54:28;6.57;;;5.30;;
21458;SDS011;10891;49.350;19.386;2022-09-21T06:56:56;8.40;;;5.45;;
21458;SDS011;10891;49.350;19.386;2022-09-21T06:59:23;5.07;;;3.45;;
21458;SDS011;10891;49.350;19.386;2022-09-21T07:01:50;6.25;;;3.38;;
21458;SDS011;10891;49.350;19.386;2022-09-21T07:04:21;2.75;;;2.35;;
21458;SDS011;10891;49.350;19.386;2022-09-21T07:06:48;4.10;;;2.70;;
21458;SDS011;10891;49.350;19.386;2022-09-21T07:09:15;4.05;;;3.20;;
21458;SDS011;10891;49.350;19.386;2022-09-21T07:11:43;3.95;;;2.90;;
21458;SDS011;10891;49.350;19.386;2022-09-21T07:14:12;5.85;;;4.07;;
21458;SDS011;10891;49.350;19.386;2022-09-21T07:16:39;6.55;;;3.55;;
21458;SDS011;10891;49.350;19.386;2022-09-21T07:19:07;6.70;;;4.13;;
21458;SDS011;10891;49.350;19.386;2022-09-21T07:21:34;6.90;;;3.70;;
21458;SDS011;10891;49.350;19.386;2022-09-21T07:24:01;4.72;;;3.00;;
21458;SDS011;10891;49.350;19.386;2022-09-21T07:26:28;6.25;;;4.70;;
21458;SDS011;10891;49.350;19.386;2022-09-21T07:28:55;8.48;;;5.20;;
21458;SDS011;10891;49.350;19.386;2022-09-21T07:31:23;14.10;;;8.23;;
21458;SDS011;10891;49.350;19.386;2022-09-21T07:33:54;8.82;;;5.47;;
21458;SDS011;10891;49.350;19.386;2022-09-21T07:36:22;8.85;;;6.35;;
21458;SDS011;10891;49.350;19.386;2022-09-21T07:38:49;16.35;;;11.95;;
21458;SDS011;10891;49.350;19.386;2022-09-21T07:41:17;8.82;;;5.97;;
21458;SDS011;10891;49.350;19.386;2022-09-21T07:43:44;7.97;;;5.00;;
21458;SDS011;10891;49.350;19.386;2022-09-21T07:46:12;9.90;;;6.68;;
21458;SDS011;10891;49.350;19.386;2022-09-21T07:48:41;12.57;;;7.45;;
21458;SDS011;10891;49.350;19.386;2022-09-21T07:51:09;13.82;;;9.90;;
21458;SDS011;10891;49.350;19.386;2022-09-21T07:53:40;7.75;;;6.43;;
21458;SDS011;10891;49.350;19.386;2022-09-21T07:56:10;8.13;;;5.45;;
21458;SDS011;10891;49.350;19.386;2022-09-21T07:58:38;8.52;;;5.47;;
21458;SDS011;10891;49.350;19.386;2022-09-21T08:01:23;18.38;;;13.45;;
21458;SDS011;10891;49.350;19.386;2022-09-21T08:03:53;18.48;;;11.73;;
21458;SDS011;10891;49.350;19.386;2022-09-21T08:06:21;13.07;;;9.93;;
21458;SDS011;10891;49.350;19.386;2022-09-21T08:08:49;19.15;;;11.35;;
21458;SDS011;10891;49.350;19.386;2022-09-21T08:11:18;19.95;;;10.07;;
21458;SDS011;10891;49.350;19.386;2022-09-21T08:13:46;16.08;;;10.73;;
21458;SDS011;10891;49.350;19.386;2022-09-21T08:16:13;16.30;;;11.63;;
21458;SDS011;10891;49.350;19.386;2022-09-21T08:18:40;13.00;;;8.38;;
21458;SDS011;10891;49.350;19.386;2022-09-21T08:21:09;11.18;;;7.15;;
21458;SDS011;10891;49.350;19.386;2022-09-21T08:23:37;11.48;;;8.57;;
21458;SDS011;10891;49.350;19.386;2022-09-21T08:26:07;9.75;;;7.03;;
21458;SDS011;10891;49.350;19.386;2022-09-21T08:28:36;9.57;;;7.07;;
21458;SDS011;10891;49.350;19.386;2022-09-21T08:31:06;10.80;;;5.85;;
21458;SDS011;10891;49.350;19.386;2022-09-21T08:33:33;5.47;;;4.10;;
21458;SDS011;10891;49.350;19.386;2022-09-21T08:36:01;4.85;;;3.95;;
21458;SDS011;10891;49.350;19.386;2022-09-21T08:38:32;5.25;;;3.05;;
21458;SDS011;10891;49.350;19.386;2022-09-21T08:41:00;2.92;;;2.63;;
21458;SDS011;10891;49.350;19.386;2022-09-21T08:43:38;4.30;;;3.05;;
21458;SDS011;10891;49.350;19.386;2022-09-21T08:46:09;3.25;;;2.95;;
21458;SDS011;10891;49.350;19.386;2022-09-21T08:48:38;6.75;;;4.35;;
21458;SDS011;10891;49.350;19.386;2022-09-21T08:51:10;6.78;;;4.80;;
21458;SDS011;10891;49.350;19.386;2022-09-21T08:53:42;4.05;;;2.97;;
21458;SDS011;10891;49.350;19.386;2022-09-21T08:56:11;5.03;;;3.88;;
21458;SDS011;10891;49.350;19.386;2022-09-21T08:58:40;4.78;;;3.40;;
21458;SDS011;10891;49.350;19.386;2022-09-21T09:01:14;5.05;;;3.90;;
21458;SDS011;10891;49.350;19.386;2022-09-21T09:04:06;5.80;;;3.92;;
21458;SDS011;10891;49.350;19.386;2022-09-21T09:06:47;4.38;;;3.10;;
21458;SDS011;10891;49.350;19.386;2022-09-21T09:09:25;6.70;;;4.63;;
21458;SDS011;10891;49.350;19.386;2022-09-21T09:12:14;5.68;;;3.80;;
21458;SDS011;10891;49.350;19.386;2022-09-21T09:17:59;8.57;;;4.72;;
21458;SDS011;10891;49.350;19.386;2022-09-21T09:20:33;7.88;;;5.90;;
21458;SDS011;10891;49.350;19.386;2022-09-21T09:23:05;9.20;;;6.55;;
21458;SDS011;10891;49.350;19.386;2022-09-21T09:25:40;7.75;;;5.25;;
21458;SDS011;10891;49.350;19.386;2022-09-21T09:28:20;18.33;;;5.15;;
21458;SDS011;10891;49.350;19.386;2022-09-21T09:30:53;7.13;;;5.15;;
21458;SDS011;10891;49.350;19.386;2022-09-21T09:33:25;14.60;;;7.07;;
21458;SDS011;10891;49.350;19.386;2022-09-21T09:35:57;14.77;;;8.13;;
21458;SDS011;10891;49.350;19.386;2022-09-21T09:38:28;7.53;;;4.68;;
21458;SDS011;10891;49.350;19.386;2022-09-21T09:41:06;10.82;;;6.35;;
21458;SDS011;10891;49.350;19.386;2022-09-21T09:43:57;12.82;;;7.72;;
21458;SDS011;10891;49.350;19.386;2022-09-21T09:46:40;6.68;;;3.85;;
21458;SDS011;10891;49.350;19.386;2022-09-21T09:49:19;5.32;;;4.05;;
21458;SDS011;10891;49.350;19.386;2022-09-21T09:51:55;16.77;;;8.05;;
21458;SDS011;10891;49.350;19.386;2022-09-21T09:54:23;6.15;;;4.53;;
21458;SDS011;10891;49.350;19.386;2022-09-21T09:56:53;5.82;;;4.05;;
21458;SDS011;10891;49.350;19.386;2022-09-21T09:59:23;8.50;;;6.22;;
21458;SDS011;10891;49.350;19.386;2022-09-21T10:01:58;9.90;;;5.20;;
21458;SDS011;10891;49.350;19.386;2022-09-21T10:04:27;7.03;;;5.03;;
21458;SDS011;10891;49.350;19.386;2022-09-21T10:06:55;7.00;;;4.68;;
21458;SDS011;10891;49.350;19.386;2022-09-21T10:09:23;6.20;;;4.82;;
21458;SDS011;10891;49.350;19.386;2022-09-21T10:11:54;4.38;;;3.42;;
21458;SDS011;10891;49.350;19.386;2022-09-21T10:14:24;12.10;;;9.25;;
21458;SDS011;10891;49.350;19.386;2022-09-21T10:16:53;5.18;;;3.80;;
21458;SDS011;10891;49.350;19.386;2022-09-21T10:19:24;3.80;;;2.63;;
21458;SDS011;10891;49.350;19.386;2022-09-21T10:21:54;5.38;;;3.67;;
21458;SDS011;10891;49.350;19.386;2022-09-21T10:24:23;2.90;;;2.45;;
21458;SDS011;10891;49.350;19.386;2022-09-21T10:26:55;4.85;;;3.75;;
21458;SDS011;10891;49.350;19.386;2022-09-21T10:29:30;6.25;;;4.40;;
21458;SDS011;10891;49.350;19.386;2022-09-21T10:32:04;10.20;;;5.93;;
21458;SDS011;10891;49.350;19.386;2022-09-21T10:34:58;4.80;;;3.50;;
21458;SDS011;10891;49.350;19.386;2022-09-21T10:37:29;5.43;;;3.13;;
21458;SDS011;10891;49.350;19.386;2022-09-21T10:39:58;4.38;;;2.88;;
21458;SDS011;10891;49.350;19.386;2022-09-21T10:42:27;3.90;;;2.40;;
21458;SDS011;10891;49.350;19.386;2022-09-21T10:45:02;3.42;;;2.58;;
21458;SDS011;10891;49.350;19.386;2022-09-21T10:47:32;6.43;;;2.90;;
21458;SDS011;10891;49.350;19.386;2022-09-21T10:50:03;6.80;;;2.30;;
21458;SDS011;10891;49.350;19.386;2022-09-21T10:52:36;2.47;;;2.00;;
21458;SDS011;10891;49.350;19.386;2022-09-21T10:55:14;4.32;;;2.10;;
21458;SDS011;10891;49.350;19.386;2022-09-21T10:57:44;2.92;;;1.58;;
21458;SDS011;10891;49.350;19.386;2022-09-21T11:00:25;2.22;;;1.77;;
21458;SDS011;10891;49.350;19.386;2022-09-21T11:05:53;3.00;;;2.25;;
21458;SDS011;10891;49.350;19.386;2022-09-21T11:08:23;2.20;;;1.80;;
21458;SDS011;10891;49.350;19.386;2022-09-21T11:11:02;2.42;;;1.80;;
21458;SDS011;10891;49.350;19.386;2022-09-21T11:13:43;3.13;;;2.08;;
21458;SDS011;10891;49.350;19.386;2022-09-21T11:16:15;1.52;;;1.10;;
21458;SDS011;10891;49.350;19.386;2022-09-21T11:18:48;1.40;;;0.93;;
21458;SDS011;10891;49.350;19.386;2022-09-21T11:21:25;2.92;;;1.85;;
21458;SDS011;10891;49.350;19.386;2022-09-21T11:24:03;3.22;;;1.80;;
21458;SDS011;10891;49.350;19.386;2022-09-21T11:26:36;3.72;;;1.98;;
21458;SDS011;10891;49.350;19.386;2022-09-21T11:29:10;1.55;;;1.30;;
21458;SDS011;10891;49.350;19.386;2022-09-21T11:31:49;1.10;;;1.00;;
21458;SDS011;10891;49.350;19.386;2022-09-21T11:34:38;1.00;;;0.77;;
21458;SDS011;10891;49.350;19.386;2022-09-21T11:37:17;0.88;;;0.65;;
21458;SDS011;10891;49.350;19.386;2022-09-21T11:39:58;0.68;;;0.68;;
21458;SDS011;10891;49.350;19.386;2022-09-21T11:42:39;0.95;;;0.70;;
21458;SDS011;10891;49.350;19.386;2022-09-21T11:45:21;1.23;;;0.88;;
21458;SDS011;10891;49.350;19.386;2022-09-21T11:48:00;2.05;;;1.20;;
21458;SDS011;10891;49.350;19.386;2022-09-21T11:50:44;0.82;;;0.82;;
21458;SDS011;10891;49.350;19.386;2022-09-21T11:53:19;2.28;;;1.63;;
21458;SDS011;10891;49.350;19.386;2022-09-21T11:58:57;33.65;;;15.48;;
21458;SDS011;10891;49.350;19.386;2022-09-21T12:01:41;1.33;;;0.90;;
21458;SDS011;10891;49.350;19.386;2022-09-21T12:04:29;14.95;;;6.82;;
21458;SDS011;10891;49.350;19.386;2022-09-21T12:07:09;1.30;;;1.13;;
21458;SDS011;10891;49.350;19.386;2022-09-21T12:09:53;0.82;;;0.60;;
21458;SDS011;10891;49.350;19.386;2022-09-21T12:12:30;3.90;;;1.40;;
21458;SDS011;10891;49.350;19.386;2022-09-21T12:15:03;0.85;;;0.70;;
21458;SDS011;10891;49.350;19.386;2022-09-21T12:17:40;0.88;;;0.80;;
21458;SDS011;10891;49.350;19.386;2022-09-21T12:20:15;2.63;;;1.63;;
21458;SDS011;10891;49.350;19.386;2022-09-21T12:22:48;0.68;;;0.63;;
21458;SDS011;10891;49.350;19.386;2022-09-21T12:25:19;4.60;;;3.55;;
21458;SDS011;10891;49.350;19.386;2022-09-21T12:27:50;1.35;;;0.90;;
21458;SDS011;10891;49.350;19.386;2022-09-21T12:30:20;1.63;;;1.30;;
21458;SDS011;10891;49.350;19.386;2022-09-21T12:32:51;1.42;;;1.23;;
21458;SDS011;10891;49.350;19.386;2022-09-21T12:35:24;14.18;;;6.03;;
21458;SDS011;10891;49.350;19.386;2022-09-21T12:37:56;3.22;;;2.35;;
21458;SDS011;10891;49.350;19.386;2022-09-21T12:40:30;5.32;;;3.22;;
21458;SDS011;10891;49.350;19.386;2022-09-21T12:43:05;3.55;;;2.60;;
21458;SDS011;10891;49.350;19.386;2022-09-21T12:45:40;4.50;;;3.08;;
21458;SDS011;10891;49.350;19.386;2022-09-21T12:48:13;5.13;;;3.75;;
21458;SDS011;10891;49.350;19.386;2022-09-21T12:50:47;7.00;;;4.50;;
21458;SDS011;10891;49.350;19.386;2022-09-21T12:53:20;15.02;;;8.77;;
21458;SDS011;10891;49.350;19.386;2022-09-21T12:55:51;3.20;;;2.15;;
21458;SDS011;10891;49.350;19.386;2022-09-21T12:58:29;4.88;;;2.47;;
21458;SDS011;10891;49.350;19.386;2022-09-21T13:01:12;9.90;;;4.22;;
21458;SDS011;10891;49.350;19.386;2022-09-21T13:03:54;3.38;;;2.10;;
21458;SDS011;10891;49.350;19.386;2022-09-21T13:06:42;3.13;;;2.30;;
21458;SDS011;10891;49.350;19.386;2022-09-21T13:09:25;20.23;;;5.47;;
21458;SDS011;10891;49.350;19.386;2022-09-21T13:11:54;5.32;;;3.60;;
21458;SDS011;10891;49.350;19.386;2022-09-21T13:14:24;5.22;;;3.40;;
21458;SDS011;10891;49.350;19.386;2022-09-21T13:16:54;6.05;;;3.92;;
21458;SDS011;10891;49.350;19.386;2022-09-21T13:19:28;6.25;;;3.65;;
21458;SDS011;10891;49.350;19.386;2022-09-21T13:22:09;8.60;;;5.55;;
21458;SDS011;10891;49.350;19.386;2022-09-21T13:24:43;7.43;;;4.85;;
21458;SDS011;10891;49.350;19.386;2022-09-21T13:27:12;6.03;;;4.88;;
21458;SDS011;10891;49.350;19.386;2022-09-21T13:29:40;5.80;;;4.60;;
21458;SDS011;10891;49.350;19.386;2022-09-21T13:32:20;6.57;;;4.13;;
21458;SDS011;10891;49.350;19.386;2022-09-21T13:34:50;4.47;;;3.78;;
21458;SDS011;10891;49.350;19.386;2022-09-21T13:37:26;6.30;;;4.78;;
21458;SDS011;10891;49.350;19.386;2022-09-21T13:43:08;7.60;;;4.22;;
21458;SDS011;10891;49.350;19.386;2022-09-21T13:49:15;4.95;;;3.35;;
21458;SDS011;10891;49.350;19.386;2022-09-21T13:51:51;4.90;;;3.85;;
21458;SDS011;10891;49.350;19.386;2022-09-21T13:54:22;5.13;;;3.55;;
21458;SDS011;10891;49.350;19.386;2022-09-21T13:57:02;14.05;;;7.18;;
21458;SDS011;10891;49.350;19.386;2022-09-21T13:59:41;19.75;;;11.52;;
21458;SDS011;10891;49.350;19.386;2022-09-21T14:02:19;7.82;;;4.50;;
21458;SDS011;10891;49.350;19.386;2022-09-21T14:04:50;141.95;;;54.25;;
21458;SDS011;10891;49.350;19.386;2022-09-21T14:07:19;37.42;;;21.23;;
21458;SDS011;10891;49.350;19.386;2022-09-21T14:09:52;4.05;;;3.00;;
21458;SDS011;10891;49.350;19.386;2022-09-21T14:12:23;20.85;;;14.70;;
21458;SDS011;10891;49.350;19.386;2022-09-21T14:15:09;36.20;;;28.17;;
21458;SDS011;10891;49.350;19.386;2022-09-21T14:18:07;7.50;;;4.82;;
21458;SDS011;10891;49.350;19.386;2022-09-21T14:23:35;327.42;;;160.38;;
21458;SDS011;10891;49.350;19.386;2022-09-21T14:26:18;247.60;;;134.75;;
21458;SDS011;10891;49.350;19.386;2022-09-21T14:28:47;127.90;;;60.33;;
21458;SDS011;10891;49.350;19.386;2022-09-21T14:31:17;56.15;;;25.52;;
21458;SDS011;10891;49.350;19.386;2022-09-21T14:33:51;5.95;;;4.45;;
21458;SDS011;10891;49.350;19.386;2022-09-21T14:36:21;6.35;;;4.13;;
21458;SDS011;10891;49.350;19.386;2022-09-21T14:38:55;18.55;;;10.43;;
21458;SDS011;10891;49.350;19.386;2022-09-21T14:41:31;5.03;;;3.60;;
21458;SDS011;10891;49.350;19.386;2022-09-21T14:44:04;7.82;;;5.07;;
21458;SDS011;10891;49.350;19.386;2022-09-21T14:46:39;11.15;;;6.43;;
21458;SDS011;10891;49.350;19.386;2022-09-21T14:49:35;5.85;;;3.03;;
21458;SDS011;10891;49.350;19.386;2022-09-21T14:52:15;3.92;;;2.50;;
21458;SDS011;10891;49.350;19.386;2022-09-21T14:54:57;8.40;;;5.13;;
21458;SDS011;10891;49.350;19.386;2022-09-21T14:57:41;11.60;;;7.15;;
21458;SDS011;10891;49.350;19.386;2022-09-21T15:00:16;7.18;;;5.45;;
21458;SDS011;10891;49.350;19.386;2022-09-21T15:02:48;5.40;;;2.88;;
21458;SDS011;10891;49.350;19.386;2022-09-21T15:05:33;15.40;;;9.02;;
21458;SDS011;10891;49.350;19.386;2022-09-21T15:08:18;7.97;;;4.75;;
21458;SDS011;10891;49.350;19.386;2022-09-21T15:11:13;4.57;;;3.28;;